Gulbeniz A — TCZK8 — position and weather

sailwx.info

Track history (hours):
 
Tides and Currents Weather Stations Pressure Air Temp Water Temp Dewpoint Dewpoint Depression Visibility Wind Speed Wind Dir Waves Ship Positions

Gulbeniz A

Last reported at 2017-Feb-11 07:22 UTC. Time now 2017-Feb-21 08:00 UTC.
Position N 39°41' E 023°56'.
Warning: this ship's position is 10 days out of date.

Length 210 m; draft 11.1 m.

Type: Ship (hazmat cat A). MMSI: 271042493.

Date/timePositionNaut miles runAvg speedWind from/ knotsBaromVisibWave heightAir tempDewpointWater temp
2017-Feb-11 07:22N 39°41' E 023°56'1215.0
2017-Feb-11 06:32N 39°37' E 024°11'40010.7
2017-Feb-09 17:15N 37°50' E 015°56'1013.0
2017-Feb-09 16:30N 37°52' E 015°44'1112.0
2017-Feb-09 15:33N 37°60' E 015°34'1312.7
2017-Feb-09 14:33N 38°12' E 015°36'1010.4
2017-Feb-09 13:33N 38°23' E 015°35'1515.4
2017-Feb-09 12:33N 38°34' E 015°21'1514.7
2017-Feb-09 11:33N 38°44' E 015°08'1514.7
2017-Feb-09 10:30N 38°52' E 014°51'50913.7
2017-Feb-07 21:16N 43°08' E 005°08'1613.9
2017-Feb-07 20:09N 43°22' E 004°58'6 2.2
2017-Feb-07 17:23N 43°25' E 004°50'0 0.0
2017-Feb-06 16:32N 43°25' E 004°50'7 0.3
2017-Feb-05 15:33N 43°22' E 004°58'12 9.1
2017-Feb-05 14:16N 43°11' E 005°03'6 6.9
2017-Feb-05 13:26N 43°05' E 005°03'5 1.4
2017-Feb-05 09:26N 43°05' E 004°56'13 6.7
2017-Feb-05 07:27N 42°55' E 004°44'11215.2
2017-Feb-05 00:05N 41°37' E 002°55'3015.3
2017-Feb-04 22:08N 41°19' E 002°23'915.1
2017-Feb-04 21:33N 41°16' E 002°12'5 1.2
2017-Feb-04 17:27N 41°21' E 002°10'0 0.0
2017-Feb-04 16:33N 41°21' E 002°10'0 0.0
2017-Feb-04 15:33N 41°21' E 002°10'0 0.0
2017-Feb-04 14:33N 41°21' E 002°10'0 0.0
2017-Feb-04 13:27N 41°21' E 002°10'0 0.0
2017-Feb-04 12:33N 41°21' E 002°10'0 0.0
2017-Feb-04 11:33N 41°21' E 002°10'0 0.0
2017-Feb-04 10:27N 41°21' E 002°10'0 0.0
2017-Feb-04 09:33N 41°21' E 002°10'0 0.0
2017-Feb-04 08:27N 41°21' E 002°10'0 0.0
2017-Feb-04 07:33N 41°21' E 002°10'0 0.0
2017-Feb-04 04:15N 41°21' E 002°10'0 0.0
2017-Feb-04 02:27N 41°21' E 002°10'0 0.0
2017-Feb-04 01:27N 41°21' E 002°10'0 0.0
2017-Feb-04 00:33N 41°21' E 002°10'0 0.0
2017-Feb-03 23:33N 41°21' E 002°10'0 0.0
2017-Feb-03 22:33N 41°21' E 002°10'0 0.0
2017-Feb-03 21:15N 41°21' E 002°10'0 0.0
2017-Feb-03 19:33N 41°21' E 002°10'0 0.0
2017-Feb-03 16:27N 41°21' E 002°10'6 1.2
2017-Feb-03 11:33N 41°16' E 002°13'3 2.9
2017-Feb-03 10:33N 41°17' E 002°17'4 3.8
2017-Feb-03 09:32N 41°18' E 002°22'3 1.2
2017-Feb-03 07:23N 41°18' E 002°25'1 0.9
2017-Feb-03 06:32N 41°18' E 002°25'1 0.9
2017-Feb-03 05:33N 41°19' E 002°24'1 0.7
2017-Feb-03 04:33N 41°19' E 002°23'4 1.2
2017-Feb-03 01:33N 41°17' E 002°19'9 9.3
2017-Feb-03 00:33N 41°13' E 002°08'10 9.9
2017-Feb-02 23:33N 41°05' E 001°59'10 9.7
2017-Feb-02 22:33N 40°58' E 001°51'10 9.6
2017-Feb-02 21:33N 40°50' E 001°44'10 9.6
2017-Feb-02 20:33N 40°42' E 001°36'10 9.8
2017-Feb-02 19:33N 40°36' E 001°26'1010.3
2017-Feb-02 18:33N 40°30' E 001°15'1110.8
2017-Feb-02 17:33N 40°24' E 001°03'1110.7
2017-Feb-02 16:33N 40°18' E 000°52'1110.7
2017-Feb-02 15:31N 40°12' E 000°39'64 2.1
2017-Feb-01 09:33N 39°26' W 000°18'1 1.1
2017-Feb-01 08:24N 39°27' W 000°19'0 0.0
2017-Feb-01 07:33N 39°27' W 000°19'  
Track history (hours):
 
Tides and Currents Weather Stations Pressure Air Temp Water Temp Dewpoint Dewpoint Depression Visibility Wind Speed Wind Dir Waves Ship Positions

Gulbeniz A

Last reported at 2017-Feb-11 07:22 UTC. Time now 2017-Feb-21 08:00 UTC.
Position N 39°41' E 023°56'.
Warning: this ship's position is 10 days out of date.

Length 210 m; draft 11.1 m.

Type: Ship (hazmat cat A). MMSI: 271042493.

Date/timePositionNaut miles runAvg speedWind from/ knotsBaromVisibWave heightAir tempDewpointWater temp
2017-Feb-11 07:22N 39°41' E 023°56'1215.0
2017-Feb-11 06:32N 39°37' E 024°11'40010.7
2017-Feb-09 17:15N 37°50' E 015°56'1013.0
2017-Feb-09 16:30N 37°52' E 015°44'1112.0
2017-Feb-09 15:33N 37°60' E 015°34'1312.7
2017-Feb-09 14:33N 38°12' E 015°36'1010.4
2017-Feb-09 13:33N 38°23' E 015°35'1515.4
2017-Feb-09 12:33N 38°34' E 015°21'1514.7
2017-Feb-09 11:33N 38°44' E 015°08'1514.7
2017-Feb-09 10:30N 38°52' E 014°51'50913.7
2017-Feb-07 21:16N 43°08' E 005°08'1613.9
2017-Feb-07 20:09N 43°22' E 004°58'6 2.2
2017-Feb-07 17:23N 43°25' E 004°50'0 0.0
2017-Feb-06 16:32N 43°25' E 004°50'7 0.3
2017-Feb-05 15:33N 43°22' E 004°58'12 9.1
2017-Feb-05 14:16N 43°11' E 005°03'6 6.9
2017-Feb-05 13:26N 43°05' E 005°03'5 1.4
2017-Feb-05 09:26N 43°05' E 004°56'13 6.7
2017-Feb-05 07:27N 42°55' E 004°44'11215.2
2017-Feb-05 00:05N 41°37' E 002°55'3015.3
2017-Feb-04 22:08N 41°19' E 002°23'915.1
2017-Feb-04 21:33N 41°16' E 002°12'5 1.2
2017-Feb-04 17:27N 41°21' E 002°10'0 0.0
2017-Feb-04 16:33N 41°21' E 002°10'0 0.0
2017-Feb-04 15:33N 41°21' E 002°10'0 0.0
2017-Feb-04 14:33N 41°21' E 002°10'0 0.0
2017-Feb-04 13:27N 41°21' E 002°10'0 0.0
2017-Feb-04 12:33N 41°21' E 002°10'0 0.0
2017-Feb-04 11:33N 41°21' E 002°10'0 0.0
2017-Feb-04 10:27N 41°21' E 002°10'0 0.0
2017-Feb-04 09:33N 41°21' E 002°10'0 0.0
2017-Feb-04 08:27N 41°21' E 002°10'0 0.0
2017-Feb-04 07:33N 41°21' E 002°10'0 0.0
2017-Feb-04 04:15N 41°21' E 002°10'0 0.0
2017-Feb-04 02:27N 41°21' E 002°10'0 0.0
2017-Feb-04 01:27N 41°21' E 002°10'0 0.0
2017-Feb-04 00:33N 41°21' E 002°10'0 0.0
2017-Feb-03 23:33N 41°21' E 002°10'0 0.0
2017-Feb-03 22:33N 41°21' E 002°10'0 0.0
2017-Feb-03 21:15N 41°21' E 002°10'0 0.0
2017-Feb-03 19:33N 41°21' E 002°10'0 0.0
2017-Feb-03 16:27N 41°21' E 002°10'6 1.2
2017-Feb-03 11:33N 41°16' E 002°13'3 2.9
2017-Feb-03 10:33N 41°17' E 002°17'4 3.8
2017-Feb-03 09:32N 41°18' E 002°22'3 1.2
2017-Feb-03 07:23N 41°18' E 002°25'1 0.9
2017-Feb-03 06:32N 41°18' E 002°25'1 0.9
2017-Feb-03 05:33N 41°19' E 002°24'1 0.7
2017-Feb-03 04:33N 41°19' E 002°23'4 1.2
2017-Feb-03 01:33N 41°17' E 002°19'9 9.3
2017-Feb-03 00:33N 41°13' E 002°08'10 9.9
2017-Feb-02 23:33N 41°05' E 001°59'10 9.7
2017-Feb-02 22:33N 40°58' E 001°51'10 9.6
2017-Feb-02 21:33N 40°50' E 001°44'10 9.6
2017-Feb-02 20:33N 40°42' E 001°36'10 9.8
2017-Feb-02 19:33N 40°36' E 001°26'1010.3
2017-Feb-02 18:33N 40°30' E 001°15'1110.8
2017-Feb-02 17:33N 40°24' E 001°03'1110.7
2017-Feb-02 16:33N 40°18' E 000°52'1110.7
2017-Feb-02 15:31N 40°12' E 000°39'64 2.1
2017-Feb-01 09:33N 39°26' W 000°18'1 1.1
2017-Feb-01 08:24N 39°27' W 000°19'0 0.0
2017-Feb-01 07:33N 39°27' W 000°19'  

Dump ship's entire track history